sensor_id;sensor_type;location;lat;lon;timestamp;temperature;humidity
45785;DHT22;31489;51.404;5.474;2023-05-29T00:00:21;20.40;49.60
45785;DHT22;31489;51.404;5.474;2023-05-29T00:02:50;20.40;49.70
45785;DHT22;31489;51.404;5.474;2023-05-29T00:05:17;20.30;50.10
45785;DHT22;31489;51.404;5.474;2023-05-29T00:07:43;20.30;50.20
45785;DHT22;31489;51.404;5.474;2023-05-29T00:10:10;20.20;50.20
45785;DHT22;31489;51.404;5.474;2023-05-29T00:12:37;20.20;50.50
45785;DHT22;31489;51.404;5.474;2023-05-29T00:15:03;20.20;51.10
45785;DHT22;31489;51.404;5.474;2023-05-29T00:17:31;20.10;50.50
45785;DHT22;31489;51.404;5.474;2023-05-29T00:19:58;20.10;50.60
45785;DHT22;31489;51.404;5.474;2023-05-29T00:22:24;20.00;50.80
45785;DHT22;31489;51.404;5.474;2023-05-29T00:24:50;20.00;50.80
45785;DHT22;31489;51.404;5.474;2023-05-29T00:27:16;20.00;50.90
45785;DHT22;31489;51.404;5.474;2023-05-29T00:29:42;19.90;51.00
45785;DHT22;31489;51.404;5.474;2023-05-29T00:32:07;19.90;51.50
45785;DHT22;31489;51.404;5.474;2023-05-29T00:34:33;19.80;51.30
45785;DHT22;31489;51.404;5.474;2023-05-29T00:36:59;19.80;51.30
45785;DHT22;31489;51.404;5.474;2023-05-29T00:39:24;19.80;51.50
45785;DHT22;31489;51.404;5.474;2023-05-29T00:41:50;19.70;51.60
45785;DHT22;31489;51.404;5.474;2023-05-29T00:44:20;19.70;51.90
45785;DHT22;31489;51.404;5.474;2023-05-29T00:46:51;19.60;52.30
45785;DHT22;31489;51.404;5.474;2023-05-29T00:49:20;19.60;52.20
45785;DHT22;31489;51.404;5.474;2023-05-29T00:51:46;19.60;52.00
45785;DHT22;31489;51.404;5.474;2023-05-29T00:54:16;19.50;52.50
45785;DHT22;31489;51.404;5.474;2023-05-29T00:56:43;19.50;52.30
45785;DHT22;31489;51.404;5.474;2023-05-29T00:59:10;19.40;51.90
45785;DHT22;31489;51.404;5.474;2023-05-29T01:01:36;19.40;52.10
45785;DHT22;31489;51.404;5.474;2023-05-29T01:04:03;19.40;52.00
45785;DHT22;31489;51.404;5.474;2023-05-29T01:06:32;19.30;52.00
45785;DHT22;31489;51.404;5.474;2023-05-29T01:08:58;19.30;51.90
45785;DHT22;31489;51.404;5.474;2023-05-29T01:11:34;19.20;51.80
45785;DHT22;31489;51.404;5.474;2023-05-29T01:14:06;19.10;52.30
45785;DHT22;31489;51.404;5.474;2023-05-29T01:16:50;19.10;51.90
45785;DHT22;31489;51.404;5.474;2023-05-29T01:22:25;19.00;52.00
45785;DHT22;31489;51.404;5.474;2023-05-29T01:25:10;19.00;51.60
45785;DHT22;31489;51.404;5.474;2023-05-29T01:27:38;18.90;51.60
45785;DHT22;31489;51.404;5.474;2023-05-29T01:30:05;18.80;51.10
45785;DHT22;31489;51.404;5.474;2023-05-29T01:32:33;18.80;51.10
45785;DHT22;31489;51.404;5.474;2023-05-29T01:34:59;18.70;50.90
45785;DHT22;31489;51.404;5.474;2023-05-29T01:37:25;18.70;50.70
45785;DHT22;31489;51.404;5.474;2023-05-29T01:39:52;18.60;50.70
45785;DHT22;31489;51.404;5.474;2023-05-29T01:42:18;18.60;50.60
45785;DHT22;31489;51.404;5.474;2023-05-29T01:44:44;18.50;50.50
45785;DHT22;31489;51.404;5.474;2023-05-29T01:47:11;18.50;50.30
45785;DHT22;31489;51.404;5.474;2023-05-29T01:49:37;18.50;50.40
45785;DHT22;31489;51.404;5.474;2023-05-29T01:52:04;18.40;50.30
45785;DHT22;31489;51.404;5.474;2023-05-29T01:54:30;18.40;50.30
45785;DHT22;31489;51.404;5.474;2023-05-29T01:56:56;18.40;50.30
45785;DHT22;31489;51.404;5.474;2023-05-29T01:59:22;18.30;50.10
45785;DHT22;31489;51.404;5.474;2023-05-29T02:01:48;18.30;50.10
45785;DHT22;31489;51.404;5.474;2023-05-29T02:04:13;18.20;50.10
45785;DHT22;31489;51.404;5.474;2023-05-29T02:06:39;18.20;50.10
45785;DHT22;31489;51.404;5.474;2023-05-29T02:09:05;18.20;50.20
45785;DHT22;31489;51.404;5.474;2023-05-29T02:11:32;18.10;50.10
45785;DHT22;31489;51.404;5.474;2023-05-29T02:13:57;18.10;50.10
45785;DHT22;31489;51.404;5.474;2023-05-29T02:16:23;18.10;50.10
45785;DHT22;31489;51.404;5.474;2023-05-29T02:18:48;18.00;50.10
45785;DHT22;31489;51.404;5.474;2023-05-29T02:21:14;17.90;50.10
45785;DHT22;31489;51.404;5.474;2023-05-29T02:23:40;17.90;50.20
45785;DHT22;31489;51.404;5.474;2023-05-29T02:26:05;17.90;50.20
45785;DHT22;31489;51.404;5.474;2023-05-29T02:28:31;17.90;50.30
45785;DHT22;31489;51.404;5.474;2023-05-29T02:30:56;17.80;50.30
45785;DHT22;31489;51.404;5.474;2023-05-29T02:33:22;17.80;50.30
45785;DHT22;31489;51.404;5.474;2023-05-29T02:35:48;17.80;50.30
45785;DHT22;31489;51.404;5.474;2023-05-29T02:38:14;17.70;50.40
45785;DHT22;31489;51.404;5.474;2023-05-29T02:40:40;17.70;50.40
45785;DHT22;31489;51.404;5.474;2023-05-29T02:43:07;17.70;50.50
45785;DHT22;31489;51.404;5.474;2023-05-29T02:45:33;17.70;50.50
45785;DHT22;31489;51.404;5.474;2023-05-29T02:47:59;17.70;50.50
45785;DHT22;31489;51.404;5.474;2023-05-29T02:50:25;17.60;50.50
45785;DHT22;31489;51.404;5.474;2023-05-29T02:52:53;17.60;50.70
45785;DHT22;31489;51.404;5.474;2023-05-29T02:55:19;17.50;50.80
45785;DHT22;31489;51.404;5.474;2023-05-29T02:57:44;17.50;50.80
45785;DHT22;31489;51.404;5.474;2023-05-29T03:00:10;17.50;50.90
45785;DHT22;31489;51.404;5.474;2023-05-29T03:02:36;17.40;51.00
45785;DHT22;31489;51.404;5.474;2023-05-29T03:05:02;17.40;51.10
45785;DHT22;31489;51.404;5.474;2023-05-29T03:07:28;17.40;51.20
45785;DHT22;31489;51.404;5.474;2023-05-29T03:09:54;17.40;51.10
45785;DHT22;31489;51.404;5.474;2023-05-29T03:12:20;17.30;51.30
45785;DHT22;31489;51.404;5.474;2023-05-29T03:14:46;17.30;51.30
45785;DHT22;31489;51.404;5.474;2023-05-29T03:17:12;17.20;51.40
45785;DHT22;31489;51.404;5.474;2023-05-29T03:19:38;17.20;51.50
45785;DHT22;31489;51.404;5.474;2023-05-29T03:22:04;17.20;51.70
45785;DHT22;31489;51.404;5.474;2023-05-29T03:24:29;17.10;51.80
45785;DHT22;31489;51.404;5.474;2023-05-29T03:26:55;17.10;51.80
45785;DHT22;31489;51.404;5.474;2023-05-29T03:29:21;17.10;51.80
45785;DHT22;31489;51.404;5.474;2023-05-29T03:31:47;17.10;51.90
45785;DHT22;31489;51.404;5.474;2023-05-29T03:34:13;17.00;51.90
45785;DHT22;31489;51.404;5.474;2023-05-29T03:36:39;17.00;52.10
45785;DHT22;31489;51.404;5.474;2023-05-29T03:39:04;17.00;52.30
45785;DHT22;31489;51.404;5.474;2023-05-29T03:41:30;16.90;52.30
45785;DHT22;31489;51.404;5.474;2023-05-29T03:43:56;16.90;52.80
45785;DHT22;31489;51.404;5.474;2023-05-29T03:46:21;16.90;52.50
45785;DHT22;31489;51.404;5.474;2023-05-29T03:48:47;16.80;52.50
45785;DHT22;31489;51.404;5.474;2023-05-29T03:51:13;16.80;52.50
45785;DHT22;31489;51.404;5.474;2023-05-29T03:53:38;16.80;52.70
45785;DHT22;31489;51.404;5.474;2023-05-29T03:56:04;16.80;52.80
45785;DHT22;31489;51.404;5.474;2023-05-29T03:58:30;16.80;52.80
45785;DHT22;31489;51.404;5.474;2023-05-29T04:00:56;16.70;52.90
45785;DHT22;31489;51.404;5.474;2023-05-29T04:03:22;16.80;53.10
45785;DHT22;31489;51.404;5.474;2023-05-29T04:05:48;16.70;53.10
45785;DHT22;31489;51.404;5.474;2023-05-29T04:08:14;16.70;53.20
45785;DHT22;31489;51.404;5.474;2023-05-29T04:10:39;16.70;53.30
45785;DHT22;31489;51.404;5.474;2023-05-29T04:13:05;16.70;53.50
45785;DHT22;31489;51.404;5.474;2023-05-29T04:15:33;16.60;53.40
45785;DHT22;31489;51.404;5.474;2023-05-29T04:18:00;16.60;53.40
45785;DHT22;31489;51.404;5.474;2023-05-29T04:20:25;16.60;53.80
45785;DHT22;31489;51.404;5.474;2023-05-29T04:22:51;16.60;53.70
45785;DHT22;31489;51.404;5.474;2023-05-29T04:25:17;16.60;53.80
45785;DHT22;31489;51.404;5.474;2023-05-29T04:27:44;16.60;53.70
45785;DHT22;31489;51.404;5.474;2023-05-29T04:30:14;16.60;53.90
45785;DHT22;31489;51.404;5.474;2023-05-29T04:32:40;16.60;53.70
45785;DHT22;31489;51.404;5.474;2023-05-29T04:35:06;16.60;53.80
45785;DHT22;31489;51.404;5.474;2023-05-29T04:37:32;16.60;53.70
45785;DHT22;31489;51.404;5.474;2023-05-29T04:40:04;16.50;54.00
45785;DHT22;31489;51.404;5.474;2023-05-29T04:42:37;16.50;54.00
45785;DHT22;31489;51.404;5.474;2023-05-29T04:45:05;16.60;54.00
45785;DHT22;31489;51.404;5.474;2023-05-29T04:47:31;16.50;53.90
45785;DHT22;31489;51.404;5.474;2023-05-29T04:49:59;16.60;54.00
45785;DHT22;31489;51.404;5.474;2023-05-29T04:52:25;16.50;54.00
45785;DHT22;31489;51.404;5.474;2023-05-29T04:54:50;16.50;54.00
45785;DHT22;31489;51.404;5.474;2023-05-29T04:57:16;16.50;54.00
45785;DHT22;31489;51.404;5.474;2023-05-29T04:59:41;16.50;54.10
45785;DHT22;31489;51.404;5.474;2023-05-29T05:02:07;16.50;54.20
45785;DHT22;31489;51.404;5.474;2023-05-29T05:04:33;16.50;54.10
45785;DHT22;31489;51.404;5.474;2023-05-29T05:06:58;16.50;54.20
45785;DHT22;31489;51.404;5.474;2023-05-29T05:09:24;16.50;54.10
45785;DHT22;31489;51.404;5.474;2023-05-29T05:11:49;16.50;54.20
45785;DHT22;31489;51.404;5.474;2023-05-29T05:14:17;16.50;54.20
45785;DHT22;31489;51.404;5.474;2023-05-29T05:16:43;16.50;54.50
45785;DHT22;31489;51.404;5.474;2023-05-29T05:19:09;16.50;54.30
45785;DHT22;31489;51.404;5.474;2023-05-29T05:21:34;16.50;54.30
45785;DHT22;31489;51.404;5.474;2023-05-29T05:24:00;16.50;54.30
45785;DHT22;31489;51.404;5.474;2023-05-29T05:26:26;16.50;54.20
45785;DHT22;31489;51.404;5.474;2023-05-29T05:28:52;16.50;54.30
45785;DHT22;31489;51.404;5.474;2023-05-29T05:31:18;16.50;54.30
45785;DHT22;31489;51.404;5.474;2023-05-29T05:33:44;16.60;54.20
45785;DHT22;31489;51.404;5.474;2023-05-29T05:36:09;16.60;54.30
45785;DHT22;31489;51.404;5.474;2023-05-29T05:38:35;16.60;54.30
45785;DHT22;31489;51.404;5.474;2023-05-29T05:41:01;16.60;54.40
45785;DHT22;31489;51.404;5.474;2023-05-29T05:43:27;16.60;54.30
45785;DHT22;31489;51.404;5.474;2023-05-29T05:45:52;16.70;54.50
45785;DHT22;31489;51.404;5.474;2023-05-29T05:48:18;16.70;54.30
45785;DHT22;31489;51.404;5.474;2023-05-29T05:50:43;16.60;54.40
45785;DHT22;31489;51.404;5.474;2023-05-29T05:53:09;16.70;54.30
45785;DHT22;31489;51.404;5.474;2023-05-29T05:55:35;16.70;54.20
45785;DHT22;31489;51.404;5.474;2023-05-29T05:58:00;16.70;54.20
45785;DHT22;31489;51.404;5.474;2023-05-29T06:00:26;16.70;54.30
45785;DHT22;31489;51.404;5.474;2023-05-29T06:02:51;16.80;54.40
45785;DHT22;31489;51.404;5.474;2023-05-29T06:05:17;16.80;54.30
45785;DHT22;31489;51.404;5.474;2023-05-29T06:07:43;16.80;54.20
45785;DHT22;31489;51.404;5.474;2023-05-29T06:10:09;16.80;54.30
45785;DHT22;31489;51.404;5.474;2023-05-29T06:12:34;16.90;54.20
45785;DHT22;31489;51.404;5.474;2023-05-29T06:15:00;16.90;54.10
45785;DHT22;31489;51.404;5.474;2023-05-29T06:17:26;16.90;53.90
45785;DHT22;31489;51.404;5.474;2023-05-29T06:19:52;16.90;53.90
45785;DHT22;31489;51.404;5.474;2023-05-29T06:22:18;16.90;54.00
45785;DHT22;31489;51.404;5.474;2023-05-29T06:24:44;17.00;53.90
45785;DHT22;31489;51.404;5.474;2023-05-29T06:27:10;17.00;54.00
45785;DHT22;31489;51.404;5.474;2023-05-29T06:29:36;17.00;54.10
45785;DHT22;31489;51.404;5.474;2023-05-29T06:32:01;17.10;54.20
45785;DHT22;31489;51.404;5.474;2023-05-29T06:34:27;17.10;54.00
45785;DHT22;31489;51.404;5.474;2023-05-29T06:36:53;17.10;53.80
45785;DHT22;31489;51.404;5.474;2023-05-29T06:39:18;17.20;53.90
45785;DHT22;31489;51.404;5.474;2023-05-29T06:41:46;17.10;53.70
45785;DHT22;31489;51.404;5.474;2023-05-29T06:44:11;17.20;53.70
45785;DHT22;31489;51.404;5.474;2023-05-29T06:46:37;17.30;53.70
45785;DHT22;31489;51.404;5.474;2023-05-29T06:49:03;17.30;53.90
45785;DHT22;31489;51.404;5.474;2023-05-29T06:51:29;17.30;53.60
45785;DHT22;31489;51.404;5.474;2023-05-29T06:53:55;17.40;53.90
45785;DHT22;31489;51.404;5.474;2023-05-29T06:56:21;17.40;53.70
45785;DHT22;31489;51.404;5.474;2023-05-29T06:58:47;17.50;53.60
45785;DHT22;31489;51.404;5.474;2023-05-29T07:01:13;17.50;53.60
45785;DHT22;31489;51.404;5.474;2023-05-29T07:03:38;17.50;53.30
45785;DHT22;31489;51.404;5.474;2023-05-29T07:06:04;17.60;53.30
45785;DHT22;31489;51.404;5.474;2023-05-29T07:08:31;17.60;53.30
45785;DHT22;31489;51.404;5.474;2023-05-29T07:10:57;17.60;53.10
45785;DHT22;31489;51.404;5.474;2023-05-29T07:13:25;17.70;53.10
45785;DHT22;31489;51.404;5.474;2023-05-29T07:15:53;17.70;52.90
45785;DHT22;31489;51.404;5.474;2023-05-29T07:18:19;17.70;52.80
45785;DHT22;31489;51.404;5.474;2023-05-29T07:20:44;17.80;52.60
45785;DHT22;31489;51.404;5.474;2023-05-29T07:23:10;17.80;52.50
45785;DHT22;31489;51.404;5.474;2023-05-29T07:25:36;17.80;52.60
45785;DHT22;31489;51.404;5.474;2023-05-29T07:28:01;17.90;52.70
45785;DHT22;31489;51.404;5.474;2023-05-29T07:30:27;17.90;52.60
45785;DHT22;31489;51.404;5.474;2023-05-29T07:32:52;18.00;52.60
45785;DHT22;31489;51.404;5.474;2023-05-29T07:35:18;18.10;52.70
45785;DHT22;31489;51.404;5.474;2023-05-29T07:37:44;18.10;52.30
45785;DHT22;31489;51.404;5.474;2023-05-29T07:40:09;18.20;52.60
45785;DHT22;31489;51.404;5.474;2023-05-29T07:42:35;18.20;52.40
45785;DHT22;31489;51.404;5.474;2023-05-29T07:45:01;18.30;52.20
45785;DHT22;31489;51.404;5.474;2023-05-29T07:47:27;18.30;52.20
45785;DHT22;31489;51.404;5.474;2023-05-29T07:49:53;18.40;51.80
45785;DHT22;31489;51.404;5.474;2023-05-29T07:52:19;18.40;52.00
45785;DHT22;31489;51.404;5.474;2023-05-29T07:54:44;18.40;51.80
45785;DHT22;31489;51.404;5.474;2023-05-29T07:57:10;18.50;52.00
45785;DHT22;31489;51.404;5.474;2023-05-29T07:59:36;18.50;51.90
45785;DHT22;31489;51.404;5.474;2023-05-29T08:02:02;18.60;51.60
45785;DHT22;31489;51.404;5.474;2023-05-29T08:04:29;18.60;51.80
45785;DHT22;31489;51.404;5.474;2023-05-29T08:06:55;18.70;51.40
45785;DHT22;31489;51.404;5.474;2023-05-29T08:09:21;18.80;51.50
45785;DHT22;31489;51.404;5.474;2023-05-29T08:11:47;18.80;51.40
45785;DHT22;31489;51.404;5.474;2023-05-29T08:14:13;18.80;51.00
45785;DHT22;31489;51.404;5.474;2023-05-29T08:16:39;18.90;51.40
45785;DHT22;31489;51.404;5.474;2023-05-29T08:19:04;18.90;51.30
45785;DHT22;31489;51.404;5.474;2023-05-29T08:21:33;18.90;51.50
45785;DHT22;31489;51.404;5.474;2023-05-29T08:23:59;19.00;51.10
45785;DHT22;31489;51.404;5.474;2023-05-29T08:26:26;19.00;50.80
45785;DHT22;31489;51.404;5.474;2023-05-29T08:28:51;19.10;50.40
45785;DHT22;31489;51.404;5.474;2023-05-29T08:31:17;19.20;50.70
45785;DHT22;31489;51.404;5.474;2023-05-29T08:33:43;19.20;50.60
45785;DHT22;31489;51.404;5.474;2023-05-29T08:36:09;19.30;51.00
45785;DHT22;31489;51.404;5.474;2023-05-29T08:38:35;19.40;51.00
45785;DHT22;31489;51.404;5.474;2023-05-29T08:41:01;19.40;50.80
45785;DHT22;31489;51.404;5.474;2023-05-29T08:43:31;19.50;51.10
45785;DHT22;31489;51.404;5.474;2023-05-29T08:46:01;19.50;50.00
45785;DHT22;31489;51.404;5.474;2023-05-29T08:48:28;19.50;49.90
45785;DHT22;31489;51.404;5.474;2023-05-29T08:50:55;19.60;50.50
45785;DHT22;31489;51.404;5.474;2023-05-29T08:53:22;19.60;50.10
45785;DHT22;31489;51.404;5.474;2023-05-29T08:55:48;19.70;49.70
45785;DHT22;31489;51.404;5.474;2023-05-29T08:58:16;19.80;49.90
45785;DHT22;31489;51.404;5.474;2023-05-29T09:00:44;19.90;49.80
45785;DHT22;31489;51.404;5.474;2023-05-29T09:03:14;19.90;48.80
45785;DHT22;31489;51.404;5.474;2023-05-29T09:05:40;19.90;49.40
45785;DHT22;31489;51.404;5.474;2023-05-29T09:08:10;20.00;49.30
45785;DHT22;31489;51.404;5.474;2023-05-29T09:10:42;20.00;49.00
45785;DHT22;31489;51.404;5.474;2023-05-29T09:13:09;20.10;49.00
45785;DHT22;31489;51.404;5.474;2023-05-29T09:15:35;20.20;49.00
45785;DHT22;31489;51.404;5.474;2023-05-29T09:18:01;20.20;49.00
45785;DHT22;31489;51.404;5.474;2023-05-29T09:20:29;20.30;49.00
45785;DHT22;31489;51.404;5.474;2023-05-29T09:22:59;20.40;48.80
45785;DHT22;31489;51.404;5.474;2023-05-29T09:25:30;20.40;49.00
45785;DHT22;31489;51.404;5.474;2023-05-29T09:28:03;20.50;48.80
45785;DHT22;31489;51.404;5.474;2023-05-29T09:33:01;20.60;48.00
45785;DHT22;31489;51.404;5.474;2023-05-29T09:35:45;20.70;48.00
45785;DHT22;31489;51.404;5.474;2023-05-29T09:38:13;20.70;48.20
45785;DHT22;31489;51.404;5.474;2023-05-29T09:40:40;20.80;47.60
45785;DHT22;31489;51.404;5.474;2023-05-29T09:43:13;20.90;47.70
45785;DHT22;31489;51.404;5.474;2023-05-29T09:45:40;21.00;47.60
45785;DHT22;31489;51.404;5.474;2023-05-29T09:48:07;21.00;47.90
45785;DHT22;31489;51.404;5.474;2023-05-29T09:50:34;21.10;47.70
45785;DHT22;31489;51.404;5.474;2023-05-29T09:53:00;21.20;47.60
45785;DHT22;31489;51.404;5.474;2023-05-29T09:55:27;21.30;47.60
45785;DHT22;31489;51.404;5.474;2023-05-29T09:57:54;21.40;47.70
45785;DHT22;31489;51.404;5.474;2023-05-29T10:00:21;21.40;47.10
45785;DHT22;31489;51.404;5.474;2023-05-29T10:02:50;21.50;46.70
45785;DHT22;31489;51.404;5.474;2023-05-29T10:05:16;21.60;46.80
45785;DHT22;31489;51.404;5.474;2023-05-29T10:07:44;21.60;46.90
45785;DHT22;31489;51.404;5.474;2023-05-29T10:10:14;21.70;46.80
45785;DHT22;31489;51.404;5.474;2023-05-29T10:12:48;21.80;47.00
45785;DHT22;31489;51.404;5.474;2023-05-29T10:15:15;21.90;47.10
45785;DHT22;31489;51.404;5.474;2023-05-29T10:17:56;22.00;46.80
45785;DHT22;31489;51.404;5.474;2023-05-29T10:20:26;22.20;46.70
45785;DHT22;31489;51.404;5.474;2023-05-29T10:22:55;22.30;46.30
45785;DHT22;31489;51.404;5.474;2023-05-29T10:25:22;22.40;46.20
45785;DHT22;31489;51.404;5.474;2023-05-29T10:27:49;22.50;45.80
45785;DHT22;31489;51.404;5.474;2023-05-29T10:33:06;22.70;45.30
45785;DHT22;31489;51.404;5.474;2023-05-29T10:38:15;22.90;46.00
45785;DHT22;31489;51.404;5.474;2023-05-29T10:40:43;23.10;45.30
45785;DHT22;31489;51.404;5.474;2023-05-29T10:43:32;23.20;45.20
45785;DHT22;31489;51.404;5.474;2023-05-29T10:45:59;23.40;44.60
45785;DHT22;31489;51.404;5.474;2023-05-29T10:50:54;23.70;45.00
45785;DHT22;31489;51.404;5.474;2023-05-29T10:53:24;23.90;44.90
45785;DHT22;31489;51.404;5.474;2023-05-29T10:55:51;24.20;44.30
45785;DHT22;31489;51.404;5.474;2023-05-29T10:58:21;24.40;44.40
45785;DHT22;31489;51.404;5.474;2023-05-29T11:00:48;24.70;43.90
45785;DHT22;31489;51.404;5.474;2023-05-29T11:03:15;25.00;44.40
45785;DHT22;31489;51.404;5.474;2023-05-29T11:06:00;25.30;44.00
45785;DHT22;31489;51.404;5.474;2023-05-29T11:08:46;25.60;41.80
45785;DHT22;31489;51.404;5.474;2023-05-29T11:11:28;25.90;42.90
45785;DHT22;31489;51.404;5.474;2023-05-29T11:13:56;26.10;41.90
45785;DHT22;31489;51.404;5.474;2023-05-29T11:19:06;26.50;41.50
45785;DHT22;31489;51.404;5.474;2023-05-29T11:24:27;26.80;40.80
45785;DHT22;31489;51.404;5.474;2023-05-29T11:26:54;27.00;39.70
45785;DHT22;31489;51.404;5.474;2023-05-29T11:29:26;27.10;40.10
45785;DHT22;31489;51.404;5.474;2023-05-29T11:32:10;27.20;39.40
45785;DHT22;31489;51.404;5.474;2023-05-29T11:34:40;27.30;38.10
45785;DHT22;31489;51.404;5.474;2023-05-29T11:37:06;27.40;38.90
45785;DHT22;31489;51.404;5.474;2023-05-29T11:39:36;27.40;38.20
45785;DHT22;31489;51.404;5.474;2023-05-29T11:42:02;27.40;38.70
45785;DHT22;31489;51.404;5.474;2023-05-29T11:44:28;27.40;38.80
45785;DHT22;31489;51.404;5.474;2023-05-29T11:47:04;27.40;38.60
45785;DHT22;31489;51.404;5.474;2023-05-29T11:49:34;27.40;38.50
45785;DHT22;31489;51.404;5.474;2023-05-29T11:52:13;27.40;38.50
45785;DHT22;31489;51.404;5.474;2023-05-29T11:54:43;27.40;38.30
45785;DHT22;31489;51.404;5.474;2023-05-29T11:57:18;27.40;38.40
45785;DHT22;31489;51.404;5.474;2023-05-29T11:59:50;27.40;37.50
45785;DHT22;31489;51.404;5.474;2023-05-29T12:02:17;27.40;37.90
45785;DHT22;31489;51.404;5.474;2023-05-29T12:04:43;27.40;38.20
45785;DHT22;31489;51.404;5.474;2023-05-29T12:07:19;27.40;38.10
45785;DHT22;31489;51.404;5.474;2023-05-29T12:09:45;27.30;37.20
45785;DHT22;31489;51.404;5.474;2023-05-29T12:12:10;27.30;37.50
45785;DHT22;31489;51.404;5.474;2023-05-29T12:14:36;27.30;37.50
45785;DHT22;31489;51.404;5.474;2023-05-29T12:17:02;27.30;37.90
45785;DHT22;31489;51.404;5.474;2023-05-29T12:19:27;27.30;37.60
45785;DHT22;31489;51.404;5.474;2023-05-29T12:21:53;27.30;37.60
45785;DHT22;31489;51.404;5.474;2023-05-29T12:24:19;27.40;37.60
45785;DHT22;31489;51.404;5.474;2023-05-29T12:26:47;27.40;37.90
45785;DHT22;31489;51.404;5.474;2023-05-29T12:29:13;27.40;37.30
45785;DHT22;31489;51.404;5.474;2023-05-29T12:31:39;27.40;37.70
45785;DHT22;31489;51.404;5.474;2023-05-29T12:34:10;27.40;37.30
45785;DHT22;31489;51.404;5.474;2023-05-29T12:36:40;27.40;37.00
45785;DHT22;31489;51.404;5.474;2023-05-29T12:39:07;27.50;37.50
45785;DHT22;31489;51.404;5.474;2023-05-29T12:41:36;27.50;37.50
45785;DHT22;31489;51.404;5.474;2023-05-29T12:44:05;27.50;38.00
45785;DHT22;31489;51.404;5.474;2023-05-29T12:46:39;27.60;37.70
45785;DHT22;31489;51.404;5.474;2023-05-29T12:49:15;27.60;37.20
45785;DHT22;31489;51.404;5.474;2023-05-29T12:51:42;27.70;36.90
45785;DHT22;31489;51.404;5.474;2023-05-29T12:54:12;27.70;37.00
45785;DHT22;31489;51.404;5.474;2023-05-29T12:56:39;27.70;37.00
45785;DHT22;31489;51.404;5.474;2023-05-29T12:59:08;27.80;37.10
45785;DHT22;31489;51.404;5.474;2023-05-29T13:01:35;27.80;37.30
45785;DHT22;31489;51.404;5.474;2023-05-29T13:04:01;27.80;37.30
45785;DHT22;31489;51.404;5.474;2023-05-29T13:06:27;27.80;36.80
45785;DHT22;31489;51.404;5.474;2023-05-29T13:08:53;27.80;36.90
45785;DHT22;31489;51.404;5.474;2023-05-29T13:11:18;27.80;36.60
45785;DHT22;31489;51.404;5.474;2023-05-29T13:13:44;27.80;36.10
45785;DHT22;31489;51.404;5.474;2023-05-29T13:16:36;27.80;36.50
45785;DHT22;31489;51.404;5.474;2023-05-29T13:19:02;27.80;36.90
45785;DHT22;31489;51.404;5.474;2023-05-29T13:21:27;27.80;36.10
45785;DHT22;31489;51.404;5.474;2023-05-29T13:23:53;27.80;36.50
45785;DHT22;31489;51.404;5.474;2023-05-29T13:26:19;27.80;36.30
45785;DHT22;31489;51.404;5.474;2023-05-29T13:28:47;27.80;37.10
45785;DHT22;31489;51.404;5.474;2023-05-29T13:31:12;27.80;36.20
45785;DHT22;31489;51.404;5.474;2023-05-29T13:33:44;27.80;36.10
45785;DHT22;31489;51.404;5.474;2023-05-29T13:36:10;27.80;36.50
45785;DHT22;31489;51.404;5.474;2023-05-29T13:38:35;27.70;35.80
45785;DHT22;31489;51.404;5.474;2023-05-29T13:41:01;27.70;36.00
45785;DHT22;31489;51.404;5.474;2023-05-29T13:43:26;27.70;36.20
45785;DHT22;31489;51.404;5.474;2023-05-29T13:45:52;27.60;36.00
45785;DHT22;31489;51.404;5.474;2023-05-29T13:48:18;27.60;35.80
45785;DHT22;31489;51.404;5.474;2023-05-29T13:50:43;27.60;36.00
45785;DHT22;31489;51.404;5.474;2023-05-29T13:53:09;27.50;36.00
45785;DHT22;31489;51.404;5.474;2023-05-29T13:55:34;27.50;35.50
45785;DHT22;31489;51.404;5.474;2023-05-29T13:58:00;27.50;35.60
45785;DHT22;31489;51.404;5.474;2023-05-29T14:00:26;27.40;35.20
45785;DHT22;31489;51.404;5.474;2023-05-29T14:02:52;27.40;35.10
45785;DHT22;31489;51.404;5.474;2023-05-29T14:05:17;27.40;35.80
45785;DHT22;31489;51.404;5.474;2023-05-29T14:07:43;27.30;35.10
45785;DHT22;31489;51.404;5.474;2023-05-29T14:10:09;27.40;35.20
45785;DHT22;31489;51.404;5.474;2023-05-29T14:12:35;27.30;34.80
45785;DHT22;31489;51.404;5.474;2023-05-29T14:15:01;27.30;34.50
45785;DHT22;31489;51.404;5.474;2023-05-29T14:17:26;27.30;34.70
45785;DHT22;31489;51.404;5.474;2023-05-29T14:19:52;27.30;34.30
45785;DHT22;31489;51.404;5.474;2023-05-29T14:22:17;27.30;34.40
45785;DHT22;31489;51.404;5.474;2023-05-29T14:24:43;27.30;33.90
45785;DHT22;31489;51.404;5.474;2023-05-29T14:27:09;27.20;33.80
45785;DHT22;31489;51.404;5.474;2023-05-29T14:29:34;27.20;34.10
45785;DHT22;31489;51.404;5.474;2023-05-29T14:32:00;27.20;34.60
45785;DHT22;31489;51.404;5.474;2023-05-29T14:34:25;27.20;34.60
45785;DHT22;31489;51.404;5.474;2023-05-29T14:36:51;27.20;34.40
45785;DHT22;31489;51.404;5.474;2023-05-29T14:39:17;27.20;34.20
45785;DHT22;31489;51.404;5.474;2023-05-29T14:41:43;27.20;34.40
45785;DHT22;31489;51.404;5.474;2023-05-29T14:44:08;27.30;34.00
45785;DHT22;31489;51.404;5.474;2023-05-29T14:46:36;27.20;34.60
45785;DHT22;31489;51.404;5.474;2023-05-29T14:49:01;27.20;33.60
45785;DHT22;31489;51.404;5.474;2023-05-29T14:51:27;27.20;33.90
45785;DHT22;31489;51.404;5.474;2023-05-29T14:53:53;27.20;33.70
45785;DHT22;31489;51.404;5.474;2023-05-29T14:56:19;27.20;33.80
45785;DHT22;31489;51.404;5.474;2023-05-29T14:58:45;27.10;33.00
45785;DHT22;31489;51.404;5.474;2023-05-29T15:01:13;27.10;33.60
45785;DHT22;31489;51.404;5.474;2023-05-29T15:03:39;27.20;33.40
45785;DHT22;31489;51.404;5.474;2023-05-29T15:06:09;27.10;33.40
45785;DHT22;31489;51.404;5.474;2023-05-29T15:08:35;27.20;33.20
45785;DHT22;31489;51.404;5.474;2023-05-29T15:11:01;27.10;33.70
45785;DHT22;31489;51.404;5.474;2023-05-29T15:13:30;27.10;33.50
45785;DHT22;31489;51.404;5.474;2023-05-29T15:16:01;27.10;33.80
45785;DHT22;31489;51.404;5.474;2023-05-29T15:18:33;27.00;33.30
45785;DHT22;31489;51.404;5.474;2023-05-29T15:21:04;27.00;33.60
45785;DHT22;31489;51.404;5.474;2023-05-29T15:23:30;26.90;33.70
45785;DHT22;31489;51.404;5.474;2023-05-29T15:26:01;26.90;33.60
45785;DHT22;31489;51.404;5.474;2023-05-29T15:28:28;26.90;33.90
45785;DHT22;31489;51.404;5.474;2023-05-29T15:30:54;26.90;33.70
45785;DHT22;31489;51.404;5.474;2023-05-29T15:33:19;26.90;33.90
45785;DHT22;31489;51.404;5.474;2023-05-29T15:35:48;26.80;33.40
45785;DHT22;31489;51.404;5.474;2023-05-29T15:38:15;26.80;33.30
45785;DHT22;31489;51.404;5.474;2023-05-29T15:40:41;26.80;33.20
45785;DHT22;31489;51.404;5.474;2023-05-29T15:43:07;26.70;33.60
45785;DHT22;31489;51.404;5.474;2023-05-29T15:45:33;26.70;33.70
45785;DHT22;31489;51.404;5.474;2023-05-29T15:47:58;26.70;33.30